Time;durP1;ratioP1;P1;durP2;ratioP2;P2;SDS_P1;SDS_P2;PMS_P1;PMS_P2;Temp;Humidity;BMP_temperature;BMP_pressure;BME280_temperature;BME280_humidity;BME280_pressure;Samples;Min_cycle;Max_cycle;Signal;HPM_P1;HPM_P2
2022/03/04 00:00:45;;;;;;;29.45;11.10;;;;;;;-4.12;78.64;99096.22;4849477;29;20139;-70
2022/03/04 00:03:11;;;;;;;36.33;12.27;;;;;;;-4.09;80.41;99111.06;4897181;29;20065;-71
2022/03/04 00:05:40;;;;;;;34.13;11.50;;;;;;;-4.14;80.60;99109.47;4897316;29;20083;-72
2022/03/04 00:08:06;;;;;;;38.67;11.00;;;;;;;-4.09;80.93;99111.06;4880735;29;20048;-73
2022/03/04 00:10:33;;;;;;;30.92;10.75;;;;;;;-4.07;80.17;99117.13;4898898;29;20049;-71
2022/03/04 00:12:59;;;;;;;32.80;10.50;;;;;;;-4.15;78.96;99117.47;4850321;29;20052;-71
2022/03/04 00:15:25;;;;;;;35.28;11.02;;;;;;;-4.13;77.66;99100.66;4865028;29;20123;-72
2022/03/04 00:17:51;;;;;;;30.38;9.60;;;;;;;-4.00;76.74;99110.63;4897694;29;20053;-71
2022/03/04 00:20:17;;;;;;;31.05;10.15;;;;;;;-3.97;78.32;99108.69;4880076;29;20059;-71
2022/03/04 00:22:43;;;;;;;27.90;9.80;;;;;;;-3.84;76.18;99106.28;4881119;29;20080;-72
2022/03/04 00:25:09;;;;;;;29.48;9.20;;;;;;;-3.90;75.28;99077.56;4865456;29;20572;-72
2022/03/04 00:27:35;;;;;;;23.33;9.13;;;;;;;-3.75;74.89;99105.84;4865605;29;20143;-71
2022/03/04 00:30:01;;;;;;;20.52;7.45;;;;;;;-3.74;75.11;99097.00;4880727;29;20087;-70
2022/03/04 00:32:29;;;;;;;24.65;7.72;;;;;;;-3.61;73.76;99114.91;4849254;29;20606;-71
2022/03/04 00:34:55;;;;;;;21.40;8.02;;;;;;;-3.73;72.59;99074.97;4896085;29;20064;-70
2022/03/04 00:37:21;;;;;;;18.05;5.78;;;;;;;-3.52;71.64;99101.22;4896482;29;20434;-71
2022/03/04 00:39:47;;;;;;;19.52;6.70;;;;;;;-3.53;72.00;99099.53;4863823;29;20315;-71
2022/03/04 00:42:13;;;;;;;22.48;6.70;;;;;;;-3.57;72.60;99097.97;4864098;29;20127;-72
2022/03/04 00:44:39;;;;;;;18.40;6.10;;;;;;;-3.57;73.09;99111.19;4864430;29;20212;-72
2022/03/04 00:47:05;;;;;;;19.40;7.28;;;;;;;-3.65;74.27;99098.34;4880049;29;20083;-70
2022/03/04 00:49:31;;;;;;;21.05;7.07;;;;;;;-3.66;74.73;99089.56;4848567;29;20060;-72
2022/03/04 00:51:58;;;;;;;22.90;7.13;;;;;;;-3.54;73.13;99097.81;4849828;29;20060;-71
2022/03/04 00:54:24;;;;;;;23.13;7.25;;;;;;;-3.50;73.58;99102.00;4850707;29;20049;-71
2022/03/04 00:56:49;;;;;;;21.80;5.85;;;;;;;-3.45;72.81;99102.63;4898421;29;20532;-71
2022/03/04 00:59:15;;;;;;;17.27;6.15;;;;;;;-3.41;71.58;99090.97;4881252;29;20112;-73
2022/03/04 01:01:41;;;;;;;23.75;5.85;;;;;;;-3.40;72.40;99095.31;4881385;29;20048;-72
2022/03/04 01:04:13;;;;;;;19.65;6.47;;;;;;;-3.31;70.43;99091.38;4863337;29;20056;-71
2022/03/04 01:06:39;;;;;;;14.32;5.25;;;;;;;-3.23;69.60;99086.53;4864660;29;20139;-71
2022/03/04 01:09:05;;;;;;;14.50;5.07;;;;;;;-3.21;69.63;99085.53;4865377;29;20080;-70
2022/03/04 01:11:32;;;;;;;14.05;5.13;;;;;;;-3.18;69.39;99084.50;4879113;29;20131;-70
2022/03/04 01:13:58;;;;;;;16.95;5.03;;;;;;;-3.15;69.26;99074.63;4863697;29;20082;-69
2022/03/04 01:16:24;;;;;;;17.60;6.03;;;;;;;-3.12;69.32;99072.75;4847978;29;20493;-71
2022/03/04 01:18:50;;;;;;;16.90;5.00;;;;;;;-3.15;68.95;99077.25;4895657;29;20143;-71
2022/03/04 01:21:16;;;;;;;17.20;5.30;;;;;;;-3.08;69.02;99069.03;4895318;29;20163;-72
2022/03/04 01:23:41;;;;;;;18.67;5.00;;;;;;;-3.08;68.60;99069.03;4878244;29;20072;-70
2022/03/04 01:26:08;;;;;;;15.85;4.95;;;;;;;-3.05;68.68;99072.34;4863102;29;20525;-71
2022/03/04 01:28:34;;;;;;;14.20;5.68;;;;;;;-3.06;69.26;99072.47;4878551;29;20087;-72
2022/03/04 01:31:00;;;;;;;13.85;5.32;;;;;;;-3.05;68.30;99074.16;4895011;29;20084;-71
2022/03/04 01:33:25;;;;;;;13.40;4.30;;;;;;;-3.06;68.47;99077.75;4878406;29;20053;-70
2022/03/04 01:35:51;;;;;;;18.13;5.53;;;;;;;-3.00;68.91;99086.22;4895567;29;20052;-71
2022/03/04 01:38:17;;;;;;;19.60;4.97;;;;;;;-3.08;68.74;99069.88;4878735;29;20526;-72
2022/03/04 01:40:43;;;;;;;14.82;4.82;;;;;;;-3.04;69.11;99079.34;4895343;29;20052;-71
2022/03/04 01:43:09;;;;;;;14.27;4.28;;;;;;;-3.07;69.36;99086.59;4877939;29;20067;-70
2022/03/04 01:45:35;;;;;;;13.10;5.13;;;;;;;-3.10;69.13;99081.47;4862965;29;20485;-74
2022/03/04 01:48:01;;;;;;;18.83;4.95;;;;;;;-3.09;69.34;99086.69;4863162;29;20088;-72
2022/03/04 01:50:27;;;;;;;11.10;4.22;;;;;;;-3.18;69.75;99066.88;4865188;29;20512;-73
2022/03/04 01:52:53;;;;;;;12.95;4.57;;;;;;;-3.19;69.59;99065.16;4880911;29;20116;-74
2022/03/04 01:55:19;;;;;;;15.85;4.80;;;;;;;-3.25;69.34;99057.56;4832754;29;20527;-71
2022/03/04 01:57:46;;;;;;;11.43;4.80;;;;;;;-3.26;70.12;99063.75;4849594;29;20064;-72
2022/03/04 02:00:13;;;;;;;16.38;5.40;;;;;;;-3.23;69.78;99066.25;4867601;29;20529;-72
2022/03/04 02:02:40;;;;;;;14.95;4.30;;;;;;;-3.28;69.95;99068.28;4896279;29;20449;-71
2022/03/04 02:05:06;;;;;;;18.10;4.45;;;;;;;-3.32;70.33;99066.72;4862905;29;20052;-72
2022/03/04 02:07:32;;;;;;;13.55;4.43;;;;;;;-3.36;69.99;99073.09;4848795;29;20053;-73
2022/03/04 02:09:57;;;;;;;14.30;4.65;;;;;;;-3.41;70.93;99083.03;4896092;29;20052;-72
2022/03/04 02:12:23;;;;;;;16.05;5.13;;;;;;;-3.46;70.88;99090.34;4878715;29;20457;-71
2022/03/04 02:14:49;;;;;;;13.32;4.30;;;;;;;-3.49;70.73;99088.72;4881844;29;20048;-71
2022/03/04 02:17:15;;;;;;;11.55;4.10;;;;;;;-3.51;71.36;99095.00;4879163;29;20457;-72
2022/03/04 02:19:41;;;;;;;13.30;4.45;;;;;;;-3.53;70.97;99096.88;4864452;29;20059;-71
2022/03/04 02:22:07;;;;;;;13.10;4.28;;;;;;;-3.58;71.35;99097.13;4866990;29;20056;-71
2022/03/04 02:24:33;;;;;;;14.13;5.10;;;;;;;-3.59;71.59;99099.81;4881927;29;20167;-72
2022/03/04 02:27:03;;;;;;;18.58;4.55;;;;;;;-3.60;71.87;99103.41;4898141;29;20045;-71
2022/03/04 02:29:34;;;;;;;13.57;4.80;;;;;;;-3.63;71.91;99099.97;4899318;29;20164;-70
2022/03/04 02:32:01;;;;;;;12.00;4.32;;;;;;;-3.67;71.65;99087.84;4835292;29;20044;-71
2022/03/04 02:34:27;;;;;;;15.57;5.95;;;;;;;-3.71;73.11;99094.22;4882024;29;20197;-72
2022/03/04 02:36:53;;;;;;;15.30;5.13;;;;;;;-3.77;72.73;99091.84;4897933;29;20076;-71
2022/03/04 02:39:19;;;;;;;14.85;4.45;;;;;;;-3.74;73.00;99097.00;4850462;29;20099;-71
2022/03/04 02:41:44;;;;;;;16.77;5.32;;;;;;;-3.76;72.75;99090.09;4865652;29;20052;-71
2022/03/04 02:44:12;;;;;;;17.95;5.15;;;;;;;-3.95;72.90;99076.91;4881509;29;20087;-72
2022/03/04 02:46:38;;;;;;;17.08;4.03;;;;;;;-3.83;73.16;99089.53;4881764;29;20143;-71
2022/03/04 02:49:08;;;;;;;16.65;5.30;;;;;;;-3.83;73.76;99094.81;4867060;29;20080;-72
2022/03/04 02:51:36;;;;;;;15.35;4.50;;;;;;;-3.88;73.28;99095.06;4883703;29;20060;-71
2022/03/04 02:54:02;;;;;;;19.20;5.82;;;;;;;-3.94;73.96;99090.06;4851684;29;20060;-71
2022/03/04 02:56:28;;;;;;;15.27;5.18;;;;;;;-3.95;74.24;99082.19;4899430;29;20189;-70
2022/03/04 02:58:53;;;;;;;19.70;5.70;;;;;;;-3.99;74.54;99092.06;4865876;29;20063;-71
2022/03/04 03:01:19;;;;;;;16.55;4.90;;;;;;;-4.02;74.91;99086.06;4865078;29;20055;-71
2022/03/04 03:03:45;;;;;;;27.60;5.88;;;;;;;-4.09;75.29;99089.97;4880541;29;20761;-70
2022/03/04 03:06:11;;;;;;;23.50;5.80;;;;;;;-4.05;75.29;99097.66;4849912;29;20147;-71
2022/03/04 03:08:37;;;;;;;16.23;5.53;;;;;;;-4.10;75.83;99093.50;4865266;29;20103;-71
2022/03/04 03:11:03;;;;;;;21.33;5.80;;;;;;;-4.13;76.32;99094.53;4898460;29;20158;-71
2022/03/04 03:13:29;;;;;;;18.75;6.00;;;;;;;-4.15;76.31;99094.59;4881105;29;20461;-71
2022/03/04 03:15:55;;;;;;;18.95;6.93;;;;;;;-4.25;76.78;99090.66;4881003;29;20051;-74
2022/03/04 03:18:21;;;;;;;26.08;6.25;;;;;;;-4.23;76.05;99094.09;4866588;29;20150;-70
2022/03/04 03:20:47;;;;;;;22.83;6.25;;;;;;;-4.23;76.47;99099.38;4882122;29;20055;-70
2022/03/04 03:23:13;;;;;;;18.80;6.50;;;;;;;-4.29;76.72;99098.81;4866455;29;20048;-71
2022/03/04 03:25:39;;;;;;;18.23;6.03;;;;;;;-4.33;77.09;99081.41;4881849;29;20530;-71
2022/03/04 03:28:05;;;;;;;17.80;5.78;;;;;;;-4.37;77.19;99093.88;4866101;29;20059;-70
2022/03/04 03:30:31;;;;;;;19.55;6.72;;;;;;;-4.40;77.52;99107.22;4882214;29;20103;-72
2022/03/04 03:32:57;;;;;;;19.08;7.10;;;;;;;-4.44;77.62;99101.22;4883408;29;20048;-69
2022/03/04 03:35:23;;;;;;;16.92;5.93;;;;;;;-4.41;78.15;99102.88;4867880;29;20081;-71
2022/03/04 03:37:49;;;;;;;17.15;6.13;;;;;;;-4.45;77.94;99099.53;4852988;29;20393;-72
2022/03/04 03:40:15;;;;;;;22.17;6.57;;;;;;;-4.47;78.08;99095.22;4881653;29;20052;-71
2022/03/04 03:42:41;;;;;;;21.50;6.60;;;;;;;-4.47;78.50;99095.22;4867842;29;20073;-71
2022/03/04 03:45:10;;;;;;;29.83;6.88;;;;;;;-4.45;78.94;99098.69;4891901;29;20056;-71
2022/03/04 03:47:37;;;;;;;17.27;6.68;;;;;;;-4.48;79.33;99094.38;4881768;29;20056;-71
2022/03/04 03:50:04;;;;;;;17.55;7.25;;;;;;;-4.49;78.73;99097.97;4865314;29;20056;-72
2022/03/04 03:52:29;;;;;;;23.55;7.93;;;;;;;-4.47;79.08;99100.50;4880577;29;20060;-72
2022/03/04 03:54:55;;;;;;;23.13;7.45;;;;;;;-4.51;80.01;99098.94;4850027;29;20053;-71
2022/03/04 03:57:21;;;;;;;26.05;7.85;;;;;;;-4.51;79.75;99110.34;4881730;29;20095;-71
2022/03/04 03:59:47;;;;;;;26.83;7.38;;;;;;;-4.55;80.78;99108.78;4850358;29;20473;-72
2022/03/04 04:02:13;;;;;;;20.50;6.88;;;;;;;-4.59;80.83;99109.00;4865177;29;20059;-72
2022/03/04 04:04:41;;;;;;;25.00;8.00;;;;;;;-4.53;81.17;99103.41;4880874;29;20049;-71
2022/03/04 04:07:13;;;;;;;26.50;8.88;;;;;;;-4.53;81.22;99111.34;4850376;29;20059;-71
2022/03/04 04:09:39;;;;;;;22.92;8.20;;;;;;;-4.54;81.20;99110.47;4848912;29;20063;-70
2022/03/04 04:12:06;;;;;;;22.50;7.90;;;;;;;-4.57;81.92;99109.75;4864325;29;20091;-71
2022/03/04 04:14:32;;;;;;;23.75;8.50;;;;;;;-4.61;81.89;99114.31;4864547;29;20166;-71
2022/03/04 04:16:58;;;;;;;31.00;7.65;;;;;;;-4.62;82.20;99117.91;4865690;29;20470;-71
2022/03/04 04:19:25;;;;;;;26.88;7.22;;;;;;;-4.59;82.24;99116.91;4879723;29;20057;-69
2022/03/04 04:21:51;;;;;;;28.40;9.00;;;;;;;-4.59;82.49;99122.19;4863876;29;20040;-70
2022/03/04 04:24:18;;;;;;;19.63;6.97;;;;;;;-4.59;82.64;99124.81;4879503;29;20048;-70
2022/03/04 04:26:44;;;;;;;26.00;9.05;;;;;;;-4.58;83.71;99123.88;4843633;29;20048;-69
2022/03/04 04:29:14;;;;;;;26.10;8.02;;;;;;;-4.59;83.84;99132.72;4834050;29;20059;-69
2022/03/04 04:31:40;;;;;;;22.40;7.55;;;;;;;-4.63;83.02;99127.59;4881426;29;20101;-69
2022/03/04 04:34:06;;;;;;;18.52;8.10;;;;;;;-4.71;83.39;99111.28;4880489;29;20060;-70
2022/03/04 04:36:32;;;;;;;20.33;8.57;;;;;;;-4.66;84.34;99133.00;4850293;29;20056;-71
2022/03/04 04:38:58;;;;;;;22.77;9.20;;;;;;;-4.64;84.38;99130.31;4881567;29;20084;-71
2022/03/04 04:41:24;;;;;;;24.33;8.68;;;;;;;-4.71;84.61;99128.88;4866029;29;20067;-70
2022/03/04 04:43:49;;;;;;;25.75;8.27;;;;;;;-4.73;84.19;99126.28;4850573;29;20495;-69
2022/03/04 04:46:16;;;;;;;25.33;8.82;;;;;;;-4.62;83.94;99137.22;4865212;29;20056;-69
2022/03/04 04:48:41;;;;;;;23.00;8.70;;;;;;;-4.70;84.01;99131.44;4865011;29;20049;-69
2022/03/04 04:51:07;;;;;;;25.08;9.57;;;;;;;-4.70;83.98;99146.41;4861201;29;20165;-71
2022/03/04 04:53:34;;;;;;;26.67;9.27;;;;;;;-4.69;84.65;99151.59;4862955;29;20064;-72
2022/03/04 04:56:00;;;;;;;25.88;9.25;;;;;;;-4.69;84.46;99159.50;4864287;29;20061;-71
2022/03/04 04:58:26;;;;;;;24.75;8.27;;;;;;;-4.74;85.06;99156.22;4832956;29;20053;-70
2022/03/04 05:00:56;;;;;;;31.48;9.88;;;;;;;-4.68;84.59;99157.72;4818888;29;20063;-72
2022/03/04 05:03:25;;;;;;;23.15;9.55;;;;;;;-4.65;85.43;99176.03;4850121;29;20068;-67
2022/03/04 05:05:55;;;;;;;22.85;9.50;;;;;;;-4.65;85.47;99171.63;4872538;29;20056;-69
2022/03/04 05:08:21;;;;;;;20.98;7.78;;;;;;;-4.68;85.10;99187.59;4850183;29;20060;-70
2022/03/04 05:10:47;;;;;;;21.35;9.88;;;;;;;-4.61;85.07;99183.78;4856095;29;20124;-68
2022/03/04 05:13:13;;;;;;;25.40;10.27;;;;;;;-4.59;85.19;99196.03;4860321;29;20049;-70
2022/03/04 05:15:39;;;;;;;30.60;11.00;;;;;;;-4.56;85.06;99195.91;4839817;29;20096;-63
2022/03/04 05:18:06;;;;;;;30.98;12.23;;;;;;;-4.61;84.69;99185.53;4863471;29;20072;-68
2022/03/04 05:20:31;;;;;;;34.33;11.10;;;;;;;-4.57;84.83;99188.88;4847077;29;20053;-66
2022/03/04 05:22:57;;;;;;;28.90;12.30;;;;;;;-4.57;84.94;99188.88;4854771;29;20060;-66
2022/03/04 05:25:23;;;;;;;26.55;10.40;;;;;;;-4.60;85.01;99200.44;4840051;29;20147;-72
2022/03/04 05:27:50;;;;;;;29.45;11.02;;;;;;;-4.53;84.60;99186.06;4841277;29;20053;-69
2022/03/04 05:30:16;;;;;;;34.15;11.73;;;;;;;-4.40;84.47;99196.91;4864862;29;20053;-73
2022/03/04 05:32:42;;;;;;;36.53;12.50;;;;;;;-4.51;84.44;99193.91;4840982;29;20052;-67
2022/03/04 05:35:08;;;;;;;35.15;14.68;;;;;;;-4.43;84.71;99202.31;4834862;29;20057;-72
2022/03/04 05:37:34;;;;;;;31.42;12.63;;;;;;;-4.43;85.62;99202.31;4839407;29;20049;-68
2022/03/04 05:40:00;;;;;;;35.83;13.07;;;;;;;-4.40;85.19;99204.81;4863066;29;20061;-71
2022/03/04 05:42:26;;;;;;;40.47;13.20;;;;;;;-4.38;84.69;99195.94;4830744;29;20513;-70
2022/03/04 05:44:52;;;;;;;39.90;12.85;;;;;;;-4.31;84.68;99209.69;4840636;29;20069;-69
2022/03/04 05:47:18;;;;;;;31.15;12.57;;;;;;;-4.30;84.66;99211.41;4837896;29;20170;-69
2022/03/04 05:49:44;;;;;;;30.40;12.75;;;;;;;-4.21;84.13;99216.25;4819546;29;20092;-69
2022/03/04 05:52:10;;;;;;;31.23;13.32;;;;;;;-4.31;85.14;99212.34;4836673;29;20072;-74
2022/03/04 05:54:36;;;;;;;35.70;14.02;;;;;;;-4.22;85.01;99218.97;4850058;29;20600;-68
2022/03/04 05:57:02;;;;;;;32.33;12.88;;;;;;;-4.19;84.50;99222.34;4827245;29;20505;-71
2022/03/04 05:59:29;;;;;;;27.88;12.98;;;;;;;-4.06;84.27;99211.19;4852163;29;20057;-68
2022/03/04 06:01:55;;;;;;;31.40;12.32;;;;;;;-4.05;83.80;99220.84;4836673;29;20049;-68
2022/03/04 06:04:21;;;;;;;30.20;13.88;;;;;;;-3.94;84.15;99226.50;4867584;29;20104;-67
2022/03/04 06:06:47;;;;;;;39.85;16.05;;;;;;;-4.05;84.58;99215.56;4872953;29;20045;-66
2022/03/04 06:09:13;;;;;;;38.58;14.27;;;;;;;-4.00;84.77;99221.50;4867116;29;20071;-70
2022/03/04 06:11:39;;;;;;;33.53;13.38;;;;;;;-3.96;83.65;99218.63;4839542;29;20208;-68
2022/03/04 06:14:06;;;;;;;32.50;13.80;;;;;;;-3.90;84.22;99233.34;4864326;29;20052;-70
2022/03/04 06:16:32;;;;;;;34.00;14.10;;;;;;;-3.83;83.99;99223.34;4845350;29;20061;-71
2022/03/04 06:18:58;;;;;;;38.63;13.63;;;;;;;-3.78;83.88;99226.63;4840495;29;20051;-72
2022/03/04 06:21:24;;;;;;;42.70;15.95;;;;;;;-3.81;83.92;99227.63;4844053;29;20049;-70
2022/03/04 06:23:50;;;;;;;33.90;14.35;;;;;;;-3.85;84.37;99218.13;4830079;29;20053;-68
2022/03/04 06:26:16;;;;;;;31.35;12.98;;;;;;;-3.81;83.63;99222.34;4871091;29;20439;-71
2022/03/04 06:28:43;;;;;;;30.80;14.73;;;;;;;-3.76;84.00;99215.06;4853046;29;20052;-68
2022/03/04 06:31:10;;;;;;;37.55;15.82;;;;;;;-3.68;83.66;99223.47;4859803;29;20100;-68
2022/03/04 06:33:40;;;;;;;39.92;15.18;;;;;;;-3.72;83.72;99221.91;4858361;29;20049;-71
2022/03/04 06:36:07;;;;;;;;;;;;;;;-3.75;83.95;99224.69;4873218;29;20084;-71
2022/03/04 06:38:34;;;;;;;35.95;13.77;;;;;;;-3.75;82.92;99210.66;4824993;29;19928;-69
2022/03/04 06:41:01;;;;;;;36.58;15.98;;;;;;;-3.76;83.50;99222.16;4838311;29;20128;-67
2022/03/04 06:43:26;;;;;;;34.65;14.95;;;;;;;-3.60;82.62;99231.03;4869355;29;20068;-70
2022/03/04 06:45:56;;;;;;;33.35;13.02;;;;;;;-3.44;82.72;99242.59;4861813;29;20053;-73
2022/03/04 06:48:25;;;;;;;40.40;14.88;;;;;;;-3.67;82.88;99238.38;4839916;29;20154;-70
2022/03/04 06:50:51;;;;;;;33.92;14.00;;;;;;;-3.67;82.91;99234.91;4823758;29;20048;-73
2022/03/04 06:53:17;;;;;;;38.53;15.05;;;;;;;-3.54;82.84;99243.13;4825545;29;20113;-72
2022/03/04 06:55:44;;;;;;;34.92;14.07;;;;;;;-3.45;83.02;99240.88;4867660;29;20061;-71
2022/03/04 06:58:10;;;;;;;31.30;13.90;;;;;;;-3.40;82.26;99245.91;4869099;29;20544;-71
2022/03/04 07:00:38;;;;;;;38.33;15.05;;;;;;;-3.39;82.09;99223.88;4826804;29;20049;-69
2022/03/04 07:03:04;;;;;;;30.75;13.02;;;;;;;-3.38;81.80;99241.44;4860326;29;20059;-70
2022/03/04 07:05:34;;;;;;;31.05;13.15;;;;;;;-3.34;82.52;99237.72;4824229;29;20064;-70
2022/03/04 07:08:00;;;;;;;32.53;13.90;;;;;;;-3.32;82.05;99235.88;4855298;23;20064;-72
2022/03/04 07:10:26;;;;;;;29.13;13.00;;;;;;;-3.21;81.25;99249.41;4838465;29;20056;-73
2022/03/04 07:12:52;;;;;;;27.85;12.88;;;;;;;-3.01;80.74;99250.19;4841959;29;20048;-68
2022/03/04 07:15:19;;;;;;;35.40;12.57;;;;;;;-2.95;80.12;99234.91;4862979;29;20474;-69
2022/03/04 07:17:46;;;;;;;36.83;13.00;;;;;;;-2.71;80.05;99253.94;4845588;29;20060;-69
2022/03/04 07:20:13;;;;;;;31.52;12.95;;;;;;;-2.79;78.74;99255.28;4880031;29;20055;-73
2022/03/04 07:22:40;;;;;;;31.35;11.68;;;;;;;-2.76;78.33;99258.63;4845941;29;20068;-72
2022/03/04 07:25:07;;;;;;;33.38;14.25;;;;;;;-2.94;78.59;99235.75;4859506;29;20053;-74
2022/03/04 07:27:34;;;;;;;28.55;13.57;;;;;;;-2.78;78.65;99263.16;4852340;29;20489;-73
2022/03/04 07:30:02;;;;;;;35.35;14.52;;;;;;;-2.98;79.39;99231.56;4853972;29;20099;-71
2022/03/04 07:32:30;;;;;;;25.85;11.70;;;;;;;-2.75;79.53;99257.69;4846959;29;20060;-71
2022/03/04 07:34:56;;;;;;;29.13;13.38;;;;;;;-2.70;78.93;99260.97;4872218;29;20059;-73
2022/03/04 07:37:22;;;;;;;26.20;11.55;;;;;;;-2.56;78.15;99257.63;4854231;29;20057;-73
2022/03/04 07:39:48;;;;;;;29.95;12.45;;;;;;;-2.63;78.38;99258.00;4834936;29;20072;-73
2022/03/04 07:42:14;;;;;;;27.48;11.55;;;;;;;-2.67;77.98;99255.53;4876426;29;20117;-73
2022/03/04 07:44:41;;;;;;;33.75;13.30;;;;;;;-2.61;77.83;99264.06;4850411;29;20084;-74
2022/03/04 07:47:07;;;;;;;27.38;11.57;;;;;;;-2.38;77.23;99266.38;4885076;29;20057;-74
2022/03/04 07:49:33;;;;;;;26.92;12.43;;;;;;;-2.29;77.08;99273.00;4882010;29;20199;-72
2022/03/04 07:51:59;;;;;;;29.08;11.10;;;;;;;-2.24;76.10;99252.44;4852863;29;20143;-74
2022/03/04 07:54:25;;;;;;;30.20;11.45;;;;;;;-2.34;75.39;99257.38;4854011;29;20057;-73
2022/03/04 07:56:52;;;;;;;29.00;10.48;;;;;;;-2.14;75.36;99263.41;4856560;29;20409;-73
2022/03/04 07:59:19;;;;;;;24.52;11.50;;;;;;;-2.02;74.47;99262.75;4858250;29;20121;-72
2022/03/04 08:01:45;;;;;;;26.80;11.75;;;;;;;-2.20;75.20;99254.81;4897624;29;20398;-75
2022/03/04 08:04:11;;;;;;;32.78;11.77;;;;;;;-2.07;74.66;99263.00;4858621;29;20093;-73
2022/03/04 08:06:40;;;;;;;27.75;11.25;;;;;;;-2.15;74.45;99257.25;4849538;29;20056;-73
2022/03/04 08:09:07;;;;;;;24.25;11.35;;;;;;;-2.24;74.53;99241.84;4860123;29;20052;-73
2022/03/04 08:11:34;;;;;;;28.55;12.30;;;;;;;-2.19;74.78;99256.56;4840072;29;20060;-73
2022/03/04 08:14:00;;;;;;;24.65;11.52;;;;;;;-2.11;74.92;99257.94;4869017;29;20063;-72
2022/03/04 08:16:29;;;;;;;23.50;10.68;;;;;;;-1.66;73.53;99254.59;4880721;29;20167;-75
2022/03/04 08:18:56;;;;;;;26.27;10.23;;;;;;;-1.39;71.40;99252.22;4873181;29;20082;-72
2022/03/04 08:21:23;;;;;;;31.17;11.27;;;;;;;-1.38;70.56;99243.31;4868044;29;20080;-74
2022/03/04 08:23:51;;;;;;;19.50;8.23;;;;;;;-1.39;70.71;99256.66;4869058;29;20181;-74
2022/03/04 08:26:18;;;;;;;28.92;10.77;;;;;;;-1.19;70.65;99255.53;4851156;29;20192;-75
2022/03/04 08:28:44;;;;;;;23.40;10.70;;;;;;;-1.05;70.31;99255.63;4880315;29;20049;-71
2022/03/04 08:31:12;;;;;;;22.38;10.27;;;;;;;-0.73;68.39;99249.28;4848703;29;20056;-70
2022/03/04 08:33:40;;;;;;;22.95;9.55;;;;;;;-0.58;68.37;99254.66;4879216;29;20076;-71
2022/03/04 08:36:06;;;;;;;24.05;9.27;;;;;;;-0.52;67.66;99247.16;4847222;29;20120;-73
2022/03/04 08:38:47;;;;;;;17.83;8.43;;;;;;;-0.61;67.43;99231.78;5114715;27;20387;-70
2022/03/04 08:41:13;;;;;;;21.27;7.93;;;;;;;-0.39;66.36;99257.91;5098174;28;20089;-76
2022/03/04 08:43:40;;;;;;;20.80;8.45;;;;;;;-0.27;65.89;99245.69;5088087;28;20050;-73
2022/03/04 08:46:07;;;;;;;27.00;9.02;;;;;;;-0.27;66.15;99248.34;5105090;28;20043;-74
2022/03/04 08:48:33;;;;;;;20.77;8.60;;;;;;;-0.30;66.14;99260.00;5082598;28;20054;-74
2022/03/04 08:50:59;;;;;;;25.58;10.02;;;;;;;-0.26;66.78;99253.56;5075322;28;20031;-74
2022/03/04 08:53:27;;;;;;;19.77;7.43;;;;;;;-0.49;65.75;99248.78;5079350;28;20031;-73
2022/03/04 08:55:55;;;;;;;19.50;8.25;;;;;;;-0.18;65.60;99252.22;5099464;28;20059;-73
2022/03/04 08:58:21;;;;;;;25.65;9.52;;;;;;;-0.22;66.54;99256.00;5102087;28;20054;-70
2022/03/04 09:00:47;;;;;;;27.77;9.95;;;;;;;-0.49;66.77;99239.00;5109092;28;20051;-72
2022/03/04 09:03:13;;;;;;;25.65;8.30;;;;;;;-0.06;65.24;99247.03;5080291;28;20415;-74
2022/03/04 09:05:39;;;;;;;18.67;7.00;;;;;;;-0.13;65.40;99251.00;5096918;28;20066;-72
2022/03/04 09:08:05;;;;;;;22.63;9.20;;;;;;;0.76;63.10;99244.53;5086904;28;20067;-72
2022/03/04 09:10:31;;;;;;;23.23;9.55;;;;;;;0.85;61.45;99244.81;5080025;28;20051;-73
2022/03/04 09:12:57;;;;;;;15.27;7.22;;;;;;;0.66;63.24;99250.47;5081407;28;20043;-72
2022/03/04 09:15:23;;;;;;;19.20;7.53;;;;;;;0.96;61.49;99260.94;5098429;28;20051;-73
2022/03/04 09:17:49;;;;;;;23.10;8.50;;;;;;;0.86;61.23;99245.66;5083240;28;20085;-73
2022/03/04 09:20:19;;;;;;;19.02;7.88;;;;;;;0.86;61.89;99253.66;5064988;28;20122;-71
2022/03/04 09:22:50;;;;;;;27.77;7.40;;;;;;;0.72;61.80;99263.38;5096094;28;20040;-70
2022/03/04 09:25:16;;;;;;;20.15;7.93;;;;;;;0.69;61.69;99266.22;5074096;28;20398;-71
2022/03/04 09:27:43;;;;;;;24.05;7.60;;;;;;;1.01;61.25;99244.66;5076060;28;20048;-75
2022/03/04 09:30:11;;;;;;;25.02;7.22;;;;;;;1.54;60.17;99253.53;5086463;28;20042;-73
2022/03/04 09:32:38;;;;;;;22.77;7.85;;;;;;;2.08;58.64;99258.66;5090802;28;20051;-74
2022/03/04 09:35:05;;;;;;;17.60;6.70;;;;;;;2.21;58.25;99247.16;5086320;28;20036;-72
2022/03/04 09:37:32;;;;;;;18.48;6.75;;;;;;;1.90;58.65;99249.28;5093754;28;20096;-70
2022/03/04 09:39:57;;;;;;;21.85;8.05;;;;;;;1.55;59.45;99214.44;5124453;27;20069;-68
2022/03/04 09:42:24;;;;;;;18.58;8.00;;;;;;;3.06;56.84;99246.25;5072184;28;20032;-70
2022/03/04 09:44:50;;;;;;;26.08;8.40;;;;;;;4.71;50.55;99237.06;5050438;28;20044;-74
2022/03/04 09:47:21;;;;;;;22.08;8.23;;;;;;;4.75;50.22;99227.78;5065744;28;20051;-74
2022/03/04 09:49:50;;;;;;;17.65;6.90;;;;;;;4.31;50.27;99197.44;5139597;22;20084;-74
2022/03/04 09:52:16;;;;;;;24.08;7.70;;;;;;;6.58;46.24;99227.44;4973542;28;20116;-70
2022/03/04 09:54:46;;;;;;;23.27;7.40;;;;;;;7.52;43.36;99227.84;4986438;28;20140;-74
2022/03/04 09:57:12;;;;;;;22.98;7.85;;;;;;;7.51;41.97;99230.69;4985044;28;20061;-73
2022/03/04 09:59:38;;;;;;;20.33;7.38;;;;;;;7.81;41.18;99233.19;4988443;28;20089;-72
2022/03/04 10:02:05;;;;;;;25.90;7.80;;;;;;;9.44;39.24;99228.22;5018719;28;20060;-72
2022/03/04 10:04:33;;;;;;;19.23;7.00;;;;;;;8.45;37.90;99175.91;5010790;22;20057;-73
2022/03/04 10:07:11;;;;;;;16.35;6.65;;;;;;;8.16;39.64;99226.31;4893568;23;20059;-71
2022/03/04 10:09:41;;;;;;;18.98;8.30;;;;;;;6.62;43.25;99231.53;5050412;28;20104;-72
2022/03/04 10:12:09;;;;;;;;;;;;;;;5.77;45.06;99237.16;5053912;28;20048;-71
2022/03/04 10:15:01;;;;;;;24.70;7.38;;;;;;;6.67;44.29;99225.75;5040046;28;19981;-69
2022/03/04 10:17:30;;;;;;;14.82;6.80;;;;;;;6.20;44.00;99218.22;5087493;22;20152;-73
2022/03/04 10:20:05;;;;;;;20.55;7.07;;;;;;;6.40;43.86;99184.28;5044385;28;20044;-72
2022/03/04 10:22:42;;;;;;;18.50;6.82;;;;;;;8.15;40.29;99219.22;5027516;28;20047;-69
2022/03/04 10:25:23;;;;;;;29.58;7.22;;;;;;;7.56;40.88;99220.34;5041067;28;20049;-70
2022/03/04 10:27:49;;;;;;;17.67;6.47;;;;;;;7.53;40.87;99215.22;5070227;28;20053;-71
2022/03/04 10:30:16;;;;;;;26.80;6.20;;;;;;;7.31;41.23;99208.31;5026046;28;20043;-70
2022/03/04 10:32:42;;;;;;;20.52;6.95;;;;;;;7.90;40.46;99215.34;5072975;28;20446;-70
2022/03/04 10:35:14;;;;;;;16.70;7.07;;;;;;;9.74;37.56;99213.44;5040210;28;20041;-72
2022/03/04 10:37:54;;;;;;;15.80;6.00;;;;;;;10.63;35.19;99216.72;5035039;28;20069;-71
2022/03/04 10:40:25;;;;;;;19.08;6.82;;;;;;;9.97;36.34;99213.78;5054569;28;20055;-73
2022/03/04 10:42:55;;;;;;;20.48;6.22;;;;;;;8.62;38.97;99216.53;5039992;28;20071;-72
2022/03/04 10:45:20;;;;;;;;;;;;;;;9.77;36.48;99232.03;5073172;28;20059;-70
2022/03/04 10:47:49;;;;;;;16.02;5.50;;;;;;;9.64;37.02;99224.31;5042050;28;19916;-72
2022/03/04 10:50:17;;;;;;;15.88;6.38;;;;;;;8.60;38.46;99215.84;5040920;28;20044;-72
2022/03/04 10:52:58;;;;;;;16.85;5.88;;;;;;;8.61;38.21;99215.69;5024544;28;20036;-73
2022/03/04 10:55:33;;;;;;;14.00;5.22;;;;;;;7.29;40.90;99219.22;5046523;28;20135;-72
2022/03/04 10:58:00;;;;;;;15.73;5.07;;;;;;;7.01;41.47;99184.09;5060914;28;20045;-74
2022/03/04 11:00:32;;;;;;;19.05;5.15;;;;;;;7.18;41.78;99213.97;5019030;28;20107;-70
2022/03/04 11:02:59;;;;;;;16.65;4.72;;;;;;;8.88;37.00;99211.25;5041709;28;20055;-73
2022/03/04 11:05:25;;;;;;;19.40;5.47;;;;;;;10.72;34.97;99220.31;5041319;28;20663;-71
2022/03/04 11:07:51;;;;;;;13.48;4.45;;;;;;;10.61;35.10;99212.50;5074373;28;20048;-71
2022/03/04 11:10:19;;;;;;;17.98;5.18;;;;;;;10.05;35.70;99206.56;5070569;28;20057;-71
2022/03/04 11:12:46;;;;;;;14.65;4.85;;;;;;;9.70;35.51;99206.69;5032998;28;20055;-71
2022/03/04 11:15:13;;;;;;;13.23;3.80;;;;;;;9.17;36.95;99208.38;5057837;28;20446;-66
2022/03/04 11:17:39;;;;;;;9.82;4.32;;;;;;;10.44;34.66;99210.72;5025553;28;20048;-72
2022/03/04 11:20:07;;;;;;;14.07;4.63;;;;;;;11.14;33.88;99195.06;5021056;28;20041;-70
2022/03/04 11:22:36;;;;;;;18.48;4.72;;;;;;;9.98;35.70;99210.06;5051159;28;20048;-68